createdAt,value
2019-03-24T00:01:01.581Z,65.03
2019-03-24T00:03:29.657Z,71.50
2019-03-24T00:05:57.759Z,63.50
2019-03-24T00:08:26.120Z,63.68
2019-03-24T00:10:54.070Z,74.80
2019-03-24T00:13:22.130Z,74.42
2019-03-24T00:15:50.459Z,73.02
2019-03-24T00:18:19.315Z,75.35
2019-03-24T00:20:47.351Z,72.50
2019-03-24T00:23:15.846Z,72.65
2019-03-24T00:25:44.092Z,70.05
2019-03-24T00:28:12.237Z,79.97
2019-03-24T00:30:40.188Z,62.00
2019-03-24T00:33:08.439Z,68.33
2019-03-24T00:35:37.056Z,67.47
2019-03-24T00:38:05.529Z,65.40
2019-03-24T00:40:33.915Z,56.83
2019-03-24T00:43:01.927Z,60.75
2019-03-24T00:45:36.775Z,54.63
2019-03-24T00:47:59.890Z,61.05
2019-03-24T00:50:28.056Z,61.15
2019-03-24T00:52:56.128Z,60.12
2019-03-24T00:55:24.474Z,57.98
2019-03-24T00:57:52.581Z,59.48
2019-03-24T01:00:32.437Z,60.50
2019-03-24T01:03:01.430Z,56.98
2019-03-24T01:05:30.064Z,64.42
2019-03-24T01:07:58.395Z,57.10
2019-03-24T01:10:26.970Z,57.90
2019-03-24T01:12:55.383Z,58.28
2019-03-24T01:15:23.802Z,62.27
2019-03-24T01:17:51.806Z,67.92
2019-03-24T01:20:21.164Z,59.83
2019-03-24T01:22:49.953Z,57.55
2019-03-24T01:25:17.974Z,66.53
2019-03-24T01:27:46.444Z,67.37
2019-03-24T01:30:14.720Z,62.83
2019-03-24T01:32:42.718Z,61.40
2019-03-24T01:35:10.725Z,63.50
2019-03-24T01:37:38.982Z,56.15
2019-03-24T01:40:07.483Z,61.58
2019-03-24T01:42:35.709Z,58.58
2019-03-24T01:45:04.062Z,64.35
2019-03-24T01:47:32.505Z,55.40
2019-03-24T01:50:00.862Z,59.50
2019-03-24T01:52:28.879Z,53.83
2019-03-24T01:54:57.288Z,60.43
2019-03-24T01:57:25.875Z,65.12
2019-03-24T01:59:54.217Z,55.75
2019-03-24T02:02:22.219Z,56.40
2019-03-24T02:04:50.499Z,51.85
2019-03-24T02:07:19.609Z,54.48
2019-03-24T02:09:47.557Z,59.23
2019-03-24T02:12:15.658Z,62.55
2019-03-24T02:14:43.774Z,56.65
2019-03-24T02:17:11.841Z,56.23
2019-03-24T02:19:39.962Z,56.73
2019-03-24T02:22:08.550Z,57.08
2019-03-24T02:24:37.293Z,57.93
2019-03-24T02:27:05.568Z,60.90
2019-03-24T02:29:33.648Z,62.38
2019-03-24T02:32:01.757Z,56.70
2019-03-24T02:34:29.792Z,61.68
2019-03-24T02:36:58.072Z,57.73
2019-03-24T02:39:26.146Z,57.08
2019-03-24T02:41:54.603Z,58.05
2019-03-24T02:44:23.105Z,54.60
2019-03-24T02:46:51.886Z,51.58
2019-03-24T02:49:20.816Z,55.70
2019-03-24T02:51:48.956Z,53.15
2019-03-24T02:54:17.097Z,46.58
2019-03-24T02:56:45.158Z,49.55
2019-03-24T02:59:13.240Z,52.50
2019-03-24T03:01:41.319Z,51.65
2019-03-24T03:04:09.679Z,59.55
2019-03-24T03:06:37.682Z,57.13
2019-03-24T03:09:06.035Z,58.55
2019-03-24T03:11:34.378Z,53.28
2019-03-24T03:14:02.418Z,55.63
2019-03-24T03:16:38.379Z,56.98
2019-03-24T03:19:00.625Z,56.30
2019-03-24T03:21:28.730Z,63.28
2019-03-24T03:23:57.052Z,56.65
2019-03-24T03:26:25.035Z,53.38
2019-03-24T03:28:53.468Z,54.45
2019-03-24T03:31:21.891Z,58.08
2019-03-24T03:33:50.000Z,53.35
2019-03-24T03:36:18.051Z,50.05
2019-03-24T03:38:46.560Z,49.33
2019-03-24T03:41:14.620Z,55.73
2019-03-24T03:43:43.701Z,48.52
2019-03-24T03:46:12.444Z,52.53
2019-03-24T03:48:41.576Z,52.05
2019-03-24T03:51:09.652Z,46.15
2019-03-24T03:53:38.514Z,55.63
2019-03-24T03:56:06.714Z,57.48
2019-03-24T03:58:35.186Z,49.13
2019-03-24T04:01:03.244Z,46.73
2019-03-24T04:03:32.292Z,42.83
2019-03-24T04:06:00.741Z,51.23
2019-03-24T04:08:28.755Z,46.98
2019-03-24T04:10:57.924Z,45.75
2019-03-24T04:13:26.647Z,48.13
2019-03-24T04:15:54.635Z,49.93
2019-03-24T04:18:22.714Z,44.58
2019-03-24T04:20:50.746Z,48.55
2019-03-24T04:23:19.125Z,42.00
2019-03-24T04:25:47.223Z,44.03
2019-03-24T04:28:15.313Z,48.80
2019-03-24T04:30:43.386Z,46.95
2019-03-24T04:33:11.455Z,43.95
2019-03-24T04:35:39.937Z,45.35
2019-03-24T04:38:08.082Z,54.48
2019-03-24T04:40:36.071Z,47.23
2019-03-24T04:43:04.025Z,50.08
2019-03-24T04:45:32.034Z,47.35
2019-03-24T04:48:00.178Z,47.00
2019-03-24T04:50:28.553Z,42.73
2019-03-24T04:52:56.618Z,50.00
2019-03-24T04:55:24.590Z,48.55
2019-03-24T04:57:53.097Z,52.03
2019-03-24T05:00:32.585Z,54.90
2019-03-24T05:03:02.114Z,44.15
2019-03-24T05:05:30.898Z,52.40
2019-03-24T05:07:59.665Z,51.75
2019-03-24T05:10:27.950Z,55.25
2019-03-24T05:12:56.399Z,52.60
2019-03-24T05:15:24.742Z,51.75
2019-03-24T05:17:54.115Z,48.92
2019-03-24T05:20:22.333Z,53.68
2019-03-24T05:22:50.404Z,57.05
2019-03-24T05:25:18.940Z,53.13
2019-03-24T05:27:47.317Z,42.90
2019-03-24T05:30:15.298Z,41.90
2019-03-24T05:32:43.269Z,43.08
2019-03-24T05:35:11.707Z,46.30
2019-03-24T05:37:39.764Z,40.35
2019-03-24T05:40:08.439Z,44.40
2019-03-24T05:42:36.504Z,46.80
2019-03-24T05:45:04.777Z,46.98
2019-03-24T05:47:37.166Z,43.05
2019-03-24T05:50:02.930Z,45.43
2019-03-24T05:52:30.988Z,47.53
2019-03-24T05:54:59.555Z,46.80
2019-03-24T05:57:29.762Z,42.40
2019-03-24T05:59:58.496Z,42.25
2019-03-24T06:02:26.807Z,35.13
2019-03-24T06:04:55.682Z,41.80
2019-03-24T06:07:23.807Z,43.10
2019-03-24T06:09:51.865Z,51.35
2019-03-24T06:12:21.688Z,37.70
2019-03-24T06:14:50.015Z,43.73
2019-03-24T06:17:17.996Z,37.17
2019-03-24T06:19:46.622Z,45.60
2019-03-24T06:22:14.644Z,46.53
2019-03-24T06:24:42.702Z,40.52
2019-03-24T06:27:11.079Z,43.90
2019-03-24T06:29:39.154Z,42.95
2019-03-24T06:32:07.313Z,46.80
2019-03-24T06:34:35.314Z,41.88
2019-03-24T06:37:03.581Z,50.30
2019-03-24T06:39:32.308Z,45.28
2019-03-24T06:42:01.793Z,44.10
2019-03-24T06:44:30.074Z,51.37
2019-03-24T06:46:58.226Z,48.28
2019-03-24T06:49:26.713Z,44.67
2019-03-24T06:51:55.484Z,42.55
2019-03-24T06:54:23.857Z,44.10
2019-03-24T06:56:51.885Z,41.42
2019-03-24T06:59:19.983Z,42.17
2019-03-24T07:01:48.415Z,43.00
2019-03-24T07:04:16.840Z,39.15
2019-03-24T07:06:47.084Z,45.70
2019-03-24T07:09:15.225Z,36.98
2019-03-24T07:11:43.330Z,41.10
2019-03-24T07:14:12.280Z,43.25
2019-03-24T07:16:41.480Z,45.05
2019-03-24T07:19:10.938Z,43.00
2019-03-24T07:21:39.779Z,42.45
2019-03-24T07:24:08.525Z,39.33
2019-03-24T07:26:36.992Z,42.30
2019-03-24T07:29:05.725Z,46.20
2019-03-24T07:31:33.809Z,41.18
2019-03-24T07:34:03.539Z,45.17
2019-03-24T07:36:31.668Z,39.25
2019-03-24T07:38:59.763Z,46.02
2019-03-24T07:41:28.414Z,41.20
2019-03-24T07:43:56.903Z,38.95
2019-03-24T07:46:25.273Z,46.65
2019-03-24T07:48:53.964Z,41.83
2019-03-24T07:51:22.314Z,53.17
2019-03-24T07:53:50.514Z,49.63
2019-03-24T07:56:18.530Z,43.48
2019-03-24T07:58:47.115Z,43.92
2019-03-24T08:01:16.046Z,43.63
2019-03-24T08:03:44.662Z,43.87
2019-03-24T08:06:13.282Z,45.17
2019-03-24T08:08:44.352Z,47.88
2019-03-24T08:11:12.314Z,44.48
2019-03-24T08:13:40.688Z,49.58
2019-03-24T08:16:10.042Z,45.73
2019-03-24T08:18:38.425Z,49.42
2019-03-24T08:21:06.507Z,44.20
2019-03-24T08:23:35.116Z,51.65
2019-03-24T08:26:03.119Z,42.17
2019-03-24T08:28:31.114Z,44.85
2019-03-24T08:30:59.670Z,46.48
2019-03-24T08:33:28.461Z,47.30
2019-03-24T08:35:59.019Z,45.90
2019-03-24T08:38:27.765Z,41.48
2019-03-24T08:40:56.152Z,50.55
2019-03-24T08:43:24.797Z,46.20
2019-03-24T08:45:53.134Z,40.65
2019-03-24T08:48:21.581Z,48.45
2019-03-24T08:50:50.416Z,45.90
2019-03-24T08:53:18.520Z,48.52
2019-03-24T08:55:46.598Z,46.65
2019-03-24T08:58:14.627Z,47.70
2019-03-24T09:00:42.937Z,46.28
2019-03-24T09:03:11.416Z,47.80
2019-03-24T09:05:39.923Z,43.68
2019-03-24T09:08:08.326Z,45.20
2019-03-24T09:10:37.070Z,44.88
2019-03-24T09:13:05.658Z,45.05
2019-03-24T09:15:34.980Z,43.68
2019-03-24T09:18:03.101Z,44.70
2019-03-24T09:20:40.998Z,46.60
2019-03-24T09:23:01.242Z,45.95
2019-03-24T09:25:30.319Z,50.63
2019-03-24T09:27:58.995Z,40.30
2019-03-24T09:30:28.981Z,41.95
2019-03-24T09:32:57.297Z,42.93
2019-03-24T09:35:26.323Z,43.70
2019-03-24T09:37:54.766Z,42.27
2019-03-24T09:40:27.310Z,42.93
2019-03-24T09:42:56.089Z,42.75
2019-03-24T09:45:24.823Z,44.70
2019-03-24T09:47:52.847Z,44.25
2019-03-24T09:50:22.765Z,44.48
2019-03-24T09:52:52.340Z,39.80
2019-03-24T09:55:21.055Z,43.13
2019-03-24T09:57:49.198Z,47.55
2019-03-24T10:00:17.736Z,40.65
2019-03-24T10:02:47.043Z,40.17
2019-03-24T10:05:16.358Z,41.37
2019-03-24T10:07:44.746Z,42.67
2019-03-24T10:10:13.317Z,42.30
2019-03-24T10:12:41.455Z,46.02
2019-03-24T10:15:10.099Z,43.23
2019-03-24T10:17:38.834Z,44.23
2019-03-24T10:20:06.932Z,48.00
2019-03-24T10:22:35.514Z,44.85
2019-03-24T10:25:03.510Z,43.83
2019-03-24T10:27:32.427Z,48.20
2019-03-24T10:30:01.019Z,43.68
2019-03-24T10:32:29.431Z,44.20
2019-03-24T10:34:57.887Z,40.28
2019-03-24T10:37:26.929Z,37.67
2019-03-24T10:39:54.982Z,43.33
2019-03-24T10:42:23.894Z,39.67
2019-03-24T10:44:52.047Z,39.00
2019-03-24T10:47:20.168Z,39.60
2019-03-24T10:49:48.193Z,38.42
2019-03-24T10:52:16.280Z,37.08
2019-03-24T10:54:44.382Z,41.63
2019-03-24T10:57:12.748Z,39.10
2019-03-24T10:59:40.841Z,40.83
2019-03-24T11:02:09.682Z,38.98
2019-03-24T11:04:37.868Z,36.03
2019-03-24T11:07:05.926Z,38.35
2019-03-24T11:09:34.023Z,37.78
2019-03-24T11:12:02.242Z,38.25
2019-03-24T11:14:30.753Z,37.38
2019-03-24T11:16:59.259Z,38.10
2019-03-24T11:19:35.255Z,40.90
2019-03-24T11:21:58.058Z,38.33
2019-03-24T11:24:27.969Z,40.17
2019-03-24T11:26:57.746Z,39.15
2019-03-24T11:29:26.247Z,37.33
2019-03-24T11:31:54.930Z,44.13
2019-03-24T11:34:23.301Z,36.30
2019-03-24T11:36:52.368Z,34.88
2019-03-24T11:39:20.788Z,33.38
2019-03-24T11:41:49.172Z,39.33
2019-03-24T11:44:18.023Z,36.20
2019-03-24T11:46:47.144Z,41.33
2019-03-24T11:49:19.400Z,35.05
2019-03-24T11:51:47.684Z,40.00
2019-03-24T11:54:15.798Z,36.38
2019-03-24T11:56:43.966Z,36.80
2019-03-24T11:59:12.458Z,42.15
2019-03-24T12:01:40.514Z,40.98
2019-03-24T12:04:08.790Z,39.13
2019-03-24T12:06:37.307Z,43.30
2019-03-24T12:09:06.143Z,35.92
2019-03-24T12:11:34.571Z,39.40
2019-03-24T12:14:02.807Z,43.05
2019-03-24T12:16:30.865Z,39.48
2019-03-24T12:18:59.271Z,41.45
2019-03-24T12:21:27.621Z,43.38
2019-03-24T12:23:56.527Z,37.38
2019-03-24T12:26:24.994Z,38.90
2019-03-24T12:28:53.516Z,39.67
2019-03-24T12:31:21.890Z,44.45
2019-03-24T12:33:50.994Z,47.25
2019-03-24T12:36:19.929Z,44.80
2019-03-24T12:38:48.039Z,39.98
2019-03-24T12:41:16.500Z,36.10
2019-03-24T12:43:44.633Z,40.12
2019-03-24T12:46:12.906Z,40.43
2019-03-24T12:48:41.106Z,37.00
2019-03-24T12:51:09.511Z,35.85
2019-03-24T12:53:37.577Z,32.42
2019-03-24T12:56:05.830Z,38.02
2019-03-24T12:58:33.830Z,34.85
2019-03-24T13:01:02.004Z,30.55
2019-03-24T13:03:30.216Z,36.38
2019-03-24T13:05:58.540Z,35.85
2019-03-24T13:08:26.884Z,32.00
2019-03-24T13:10:55.056Z,33.10
2019-03-24T13:13:23.382Z,32.40
2019-03-24T13:15:51.795Z,30.85
2019-03-24T13:18:19.883Z,29.42
2019-03-24T13:20:48.267Z,30.40
2019-03-24T13:23:16.392Z,28.60
2019-03-24T13:25:44.563Z,30.72
2019-03-24T13:28:12.809Z,31.82
2019-03-24T13:30:40.907Z,29.87
2019-03-24T13:33:09.331Z,26.80
2019-03-24T13:35:37.531Z,31.75
2019-03-24T13:38:05.895Z,28.27
2019-03-24T13:40:34.265Z,28.30
2019-03-24T13:43:02.414Z,32.38
2019-03-24T13:45:30.432Z,31.40
2019-03-24T13:47:58.901Z,26.42
2019-03-24T13:50:31.550Z,33.45
2019-03-24T13:52:58.261Z,29.92
2019-03-24T13:55:26.622Z,34.15
2019-03-24T13:57:55.306Z,29.48
2019-03-24T14:00:23.411Z,29.57
2019-03-24T14:02:51.947Z,27.77
2019-03-24T14:05:19.999Z,25.77
2019-03-24T14:07:48.294Z,30.57
2019-03-24T14:10:16.711Z,29.85
2019-03-24T14:12:44.994Z,28.73
2019-03-24T14:15:13.751Z,26.80
2019-03-24T14:17:42.448Z,26.40
2019-03-24T14:20:10.702Z,25.55
2019-03-24T14:22:38.660Z,24.05
2019-03-24T14:25:07.094Z,22.02
2019-03-24T14:27:36.184Z,23.80
2019-03-24T14:30:04.949Z,24.70
2019-03-24T14:32:33.287Z,26.52
2019-03-24T14:35:02.644Z,26.40
2019-03-24T14:37:31.107Z,25.43
2019-03-24T14:39:59.291Z,29.27
2019-03-24T14:42:27.386Z,29.23
2019-03-24T14:44:55.347Z,25.75
2019-03-24T14:47:23.910Z,29.23
2019-03-24T14:49:52.449Z,26.05
2019-03-24T14:52:20.455Z,26.52
2019-03-24T14:54:48.532Z,26.00
2019-03-24T14:57:17.034Z,29.75
2019-03-24T14:59:45.958Z,31.75
2019-03-24T15:02:15.100Z,28.27
2019-03-24T15:04:43.843Z,27.98
2019-03-24T15:07:12.655Z,30.25
2019-03-24T15:09:41.062Z,24.30
2019-03-24T15:12:09.437Z,24.35
2019-03-24T15:14:37.933Z,24.23
2019-03-24T15:17:06.515Z,26.87
2019-03-24T15:19:35.382Z,24.82
2019-03-24T15:22:03.412Z,24.52
2019-03-24T15:24:31.567Z,24.70
2019-03-24T15:27:00.190Z,24.80
2019-03-24T15:29:28.836Z,27.90
2019-03-24T15:31:57.243Z,27.67
2019-03-24T15:34:26.049Z,23.20
2019-03-24T15:36:58.726Z,20.52
2019-03-24T15:39:27.131Z,23.07
2019-03-24T15:41:55.351Z,22.48
2019-03-24T15:44:24.407Z,25.12
2019-03-24T15:46:53.137Z,23.45
2019-03-24T15:49:21.825Z,20.37
2019-03-24T15:51:50.226Z,20.17
2019-03-24T15:54:18.728Z,17.98
2019-03-24T15:56:47.168Z,16.07
2019-03-24T15:59:16.053Z,15.65
2019-03-24T16:01:44.320Z,15.72
2019-03-24T16:04:12.553Z,12.93
2019-03-24T16:06:40.723Z,15.83
2019-03-24T16:09:08.822Z,11.20
2019-03-24T16:11:36.965Z,15.38
2019-03-24T16:14:05.130Z,11.95
2019-03-24T16:16:33.140Z,13.70
2019-03-24T16:19:01.517Z,13.68
2019-03-24T16:21:31.281Z,11.95
2019-03-24T16:24:00.535Z,15.13
2019-03-24T16:26:29.022Z,12.33
2019-03-24T16:28:57.454Z,12.78
2019-03-24T16:31:25.484Z,13.40
2019-03-24T16:33:55.240Z,17.23
2019-03-24T16:36:24.474Z,15.40
2019-03-24T16:39:02.956Z,18.10
2019-03-24T16:41:23.426Z,16.85
2019-03-24T16:43:51.865Z,17.70
2019-03-24T16:46:21.470Z,19.65
2019-03-24T16:48:51.207Z,14.43
2019-03-24T16:51:19.705Z,16.73
2019-03-24T16:53:47.930Z,17.10
2019-03-24T16:56:16.015Z,16.50
2019-03-24T16:58:44.686Z,17.80
2019-03-24T17:01:13.493Z,19.57
2019-03-24T17:03:42.067Z,20.30
2019-03-24T17:06:10.333Z,18.82
2019-03-24T17:08:38.456Z,22.67
2019-03-24T17:11:07.503Z,23.05
2019-03-24T17:13:36.028Z,25.57
2019-03-24T17:16:04.380Z,23.62
2019-03-24T17:18:32.557Z,28.20
2019-03-24T17:21:00.578Z,21.60
2019-03-24T17:23:28.904Z,24.63
2019-03-24T17:25:56.929Z,22.55
2019-03-24T17:28:25.662Z,21.65
2019-03-24T17:30:53.857Z,22.15
2019-03-24T17:33:21.922Z,25.95
2019-03-24T17:35:50.267Z,21.68
2019-03-24T17:38:18.758Z,27.77
2019-03-24T17:40:47.327Z,22.62
2019-03-24T17:43:15.654Z,20.92
2019-03-24T17:45:44.065Z,19.85
2019-03-24T17:48:12.497Z,21.37
2019-03-24T17:50:40.582Z,19.20
2019-03-24T17:53:08.793Z,22.25
2019-03-24T17:55:37.433Z,20.57
2019-03-24T17:58:05.659Z,15.90
2019-03-24T18:00:39.162Z,19.23
2019-03-24T18:03:07.674Z,18.20
2019-03-24T18:05:35.735Z,17.52
2019-03-24T18:08:04.063Z,16.77
2019-03-24T18:10:32.193Z,20.37
2019-03-24T18:13:00.632Z,18.12
2019-03-24T18:15:28.678Z,19.80
2019-03-24T18:17:56.921Z,21.57
2019-03-24T18:20:31.495Z,19.30
2019-03-24T18:22:59.997Z,18.32
2019-03-24T18:25:28.355Z,16.42
2019-03-24T18:27:56.638Z,15.70
2019-03-24T18:30:25.662Z,17.75
2019-03-24T18:32:53.731Z,73.25
2019-03-24T18:35:22.178Z,27.62
2019-03-24T18:37:50.185Z,24.30
2019-03-24T18:40:18.655Z,22.87
2019-03-24T18:42:47.055Z,17.42
2019-03-24T18:45:15.926Z,13.65
2019-03-24T18:47:43.911Z,15.60
2019-03-24T18:50:12.572Z,14.38
2019-03-24T18:52:40.711Z,16.17
2019-03-24T18:55:09.870Z,15.58
2019-03-24T18:57:38.246Z,17.45
2019-03-24T19:00:06.910Z,16.07
2019-03-24T19:02:35.768Z,18.07
2019-03-24T19:05:04.265Z,19.10
2019-03-24T19:07:32.631Z,40.85
2019-03-24T19:10:00.781Z,23.20
2019-03-24T19:12:28.902Z,16.77
2019-03-24T19:14:57.217Z,15.78
2019-03-24T19:17:25.245Z,13.13
2019-03-24T19:19:53.610Z,13.93
2019-03-24T19:22:21.942Z,16.02
2019-03-24T19:24:49.954Z,18.23
2019-03-24T19:27:18.327Z,19.23
2019-03-24T19:29:46.467Z,24.52
2019-03-24T19:32:14.503Z,17.30
2019-03-24T19:34:42.602Z,20.25
2019-03-24T19:37:11.038Z,20.82
2019-03-24T19:39:39.459Z,19.80
2019-03-24T19:42:07.740Z,21.05
2019-03-24T19:44:36.132Z,17.87
2019-03-24T19:47:05.158Z,15.83
2019-03-24T19:49:34.314Z,16.97
2019-03-24T19:52:02.876Z,15.58
2019-03-24T19:54:31.985Z,13.80
2019-03-24T19:57:00.258Z,14.15
2019-03-24T19:59:28.646Z,15.95
2019-03-24T20:01:56.684Z,13.78
2019-03-24T20:04:25.450Z,18.95
2019-03-24T20:06:53.508Z,15.20
2019-03-24T20:09:23.313Z,16.23
2019-03-24T20:11:51.501Z,14.70
2019-03-24T20:14:19.959Z,15.88
2019-03-24T20:16:49.419Z,15.70
2019-03-24T20:19:17.445Z,16.65
2019-03-24T20:21:47.311Z,15.70
2019-03-24T20:24:15.715Z,16.60
2019-03-24T20:26:43.927Z,12.78
2019-03-24T20:29:11.913Z,16.10
2019-03-24T20:31:40.506Z,14.63
2019-03-24T20:34:08.802Z,12.45
2019-03-24T20:36:36.945Z,12.55
2019-03-24T20:39:08.205Z,13.03
2019-03-24T20:41:37.111Z,13.68
2019-03-24T20:44:05.563Z,12.33
2019-03-24T20:46:33.673Z,13.43
2019-03-24T20:49:01.884Z,10.40
2019-03-24T20:51:30.951Z,12.95
2019-03-24T20:53:59.246Z,14.50
2019-03-24T20:56:27.810Z,12.58
2019-03-24T20:58:56.230Z,9.03
2019-03-24T21:01:24.424Z,12.78
2019-03-24T21:03:52.829Z,10.85
2019-03-24T21:06:20.842Z,8.93
2019-03-24T21:08:49.202Z,10.43
2019-03-24T21:11:18.531Z,13.70
2019-03-24T21:13:47.569Z,9.10
2019-03-24T21:16:16.677Z,12.33
2019-03-24T21:18:44.788Z,11.15
2019-03-24T21:21:12.854Z,12.68
2019-03-24T21:23:40.855Z,11.28
2019-03-24T21:26:11.073Z,12.65
2019-03-24T21:28:38.872Z,11.73
2019-03-24T21:31:06.959Z,13.18
2019-03-24T21:33:35.918Z,11.30
2019-03-24T21:36:04.002Z,11.70
2019-03-24T21:38:33.046Z,10.05
2019-03-24T21:41:01.201Z,8.83
2019-03-24T21:43:29.312Z,12.05
2019-03-24T21:45:57.579Z,7.67
2019-03-24T21:48:25.673Z,7.47
2019-03-24T21:50:53.779Z,8.18
2019-03-24T21:53:22.491Z,7.87
2019-03-24T21:55:50.494Z,9.68
2019-03-24T21:58:19.797Z,11.68
2019-03-24T22:00:48.273Z,9.00
2019-03-24T22:03:16.697Z,7.78
2019-03-24T22:05:45.365Z,15.53
2019-03-24T22:08:13.330Z,8.88
2019-03-24T22:10:41.474Z,7.45
2019-03-24T22:13:09.651Z,9.53
2019-03-24T22:15:37.872Z,12.58
2019-03-24T22:18:07.298Z,12.93
2019-03-24T22:20:35.788Z,10.65
2019-03-24T22:23:04.673Z,7.45
2019-03-24T22:25:32.789Z,7.70
2019-03-24T22:28:01.092Z,8.25
2019-03-24T22:30:29.481Z,10.32
2019-03-24T22:32:59.284Z,6.03
2019-03-24T22:35:27.591Z,7.20
2019-03-24T22:37:55.703Z,7.53
2019-03-24T22:40:23.685Z,10.85
2019-03-24T22:42:52.582Z,8.15
2019-03-24T22:45:20.815Z,8.98
2019-03-24T22:47:49.163Z,9.25
2019-03-24T22:50:17.227Z,8.93
2019-03-24T22:52:45.384Z,8.38
2019-03-24T22:55:14.467Z,8.40
2019-03-24T22:57:42.476Z,7.95
2019-03-24T23:00:17.842Z,7.03
2019-03-24T23:02:45.998Z,8.38
2019-03-24T23:05:14.487Z,8.33
2019-03-24T23:07:43.823Z,6.33
2019-03-24T23:10:12.208Z,8.73
2019-03-24T23:12:40.224Z,9.70
2019-03-24T23:15:08.856Z,6.60
2019-03-24T23:17:37.380Z,7.00
2019-03-24T23:20:05.739Z,9.85
2019-03-24T23:22:34.114Z,8.68
2019-03-24T23:25:02.455Z,8.83
2019-03-24T23:27:30.815Z,6.03
2019-03-24T23:29:59.161Z,4.30
2019-03-24T23:32:27.258Z,8.28
2019-03-24T23:34:56.000Z,5.30
2019-03-24T23:37:24.312Z,8.23
2019-03-24T23:39:52.711Z,9.78
2019-03-24T23:42:20.795Z,9.85
2019-03-24T23:44:49.592Z,7.58
2019-03-24T23:47:18.318Z,7.05
2019-03-24T23:49:46.683Z,8.20
2019-03-24T23:52:14.767Z,8.68
2019-03-24T23:54:42.763Z,8.45
2019-03-24T23:57:11.856Z,9.80
2019-03-24T23:59:40.841Z,5.25
